Hlavní strana
METAR-TAF:

METAR-TAF

Letiště :

Fernandina Beach, Florida, Spojené státy americké

zeměpisná šířka: 30-36-43N, zeměpisná délka: 081-27-40W, výška: 5 m

Aktuální stav počasí

Zpráva byla vytvořena před 15 minutami, v 11:15 UTC
Bezvětří
Teplota 21°C
Vlhkost vzduchu 94%
Tlak 1021 hPa
Viditelnost: 16.1 km
Jasno

METAR: KFHB 241115Z AUTO 00000KT 10SM CLR 21/20 A3016 RMK AO2 T02120199

Čas: 07:30 (11:30 UTC)


TAF: chybějící

Stav a předpovědi počasí z více než 4 000 letišť (zprávy METAR a TAF).

Červené a žluté tečky na mapě představují dostupné meteorologické stanice.

Když kurzor umístíte na tečku, zobrazí se název stanice.

Pak kliknutím zobrazíte stav a předpověď počasí.

Chcete-li změnit mapu, kliknutím na zelené tlačítko se znaménkem +mapu přiblížíte, kliknutím na zelené tlačítko se znaménkem – mapu oddálíte a kliknutím na zelené šipky přejdete na sousední mapy.


METAR-TAF: